ETX1530 KPBI-KTLH
Flight info
| Callsign | ETX1530 |
|---|---|
| Flight time | 1h 0m |
| Altitude | 30000 |
| Route | TBIRD7 SMELZ Q116 JAWJA |
| Aircraft | C750/M-SBDE3FGHRWXY/S |
Departure
| Time | 2026-04-27 19:45 |
|---|---|
| Airport | Palm Beach International Airport (KPBI) |
Arrival
| Time | 2026-04-27 20:45 |
|---|---|
| Airport | Tallahassee International Airport (KTLH) |
| Time | Latitude | Longitude | Altitude | Speed | Heading |
|---|---|---|---|---|---|
| 2026-04-27 19:19 | 26.67948 | -80.09843 | 26 ft | 0 kts | 268° |
| 2026-04-27 19:39 | 26.67948 | -80.09844 | 23 ft | 0 kts | 274° |
| 2026-04-27 19:40 | 26.67958 | -80.09860 | 23 ft | 4 kts | 309° |
| 2026-04-27 19:40 | 26.67977 | -80.09890 | 26 ft | 7 kts | 302° |
| 2026-04-27 19:40 | 26.67983 | -80.09952 | 25 ft | 10 kts | 272° |
| 2026-04-27 19:40 | 26.67982 | -80.10052 | 25 ft | 15 kts | 268° |
| 2026-04-27 19:41 | 26.67972 | -80.10186 | 25 ft | 20 kts | 274° |
| 2026-04-27 19:41 | 26.67983 | -80.10360 | 25 ft | 25 kts | 273° |
| 2026-04-27 19:41 | 26.67995 | -80.10536 | 25 ft | 15 kts | 282° |
| 2026-04-27 19:41 | 26.68056 | -80.10575 | 24 ft | 7 kts | 358° |
| 2026-04-27 19:42 | 26.68093 | -80.10610 | 23 ft | 9 kts | 333° |
| 2026-04-27 19:42 | 26.68158 | -80.10619 | 24 ft | 12 kts | 356° |
| 2026-04-27 19:42 | 26.68204 | -80.10681 | 20 ft | 13 kts | 274° |
| 2026-04-27 19:42 | 26.68208 | -80.10753 | 20 ft | 0 kts | 272° |
| 2026-04-27 19:43 | 26.68208 | -80.10754 | 20 ft | 0 kts | 272° |
| 2026-04-27 19:43 | 26.68208 | -80.10764 | 20 ft | 4 kts | 272° |
| 2026-04-27 19:43 | 26.68228 | -80.10825 | 20 ft | 13 kts | 321° |
| 2026-04-27 19:43 | 26.68317 | -80.10805 | 18 ft | 11 kts | 73° |
| 2026-04-27 19:44 | 26.68319 | -80.10789 | 18 ft | 0 kts | 88° |
| 2026-04-27 19:44 | 26.68319 | -80.10788 | 18 ft | 4 kts | 89° |
| 2026-04-27 19:44 | 26.68297 | -80.10322 | 25 ft | 117 kts | 93° |
| 2026-04-27 19:45 | 26.68215 | -80.09325 | 604 ft | 133 kts | 93° |
| 2026-04-27 19:45 | 26.68023 | -80.08243 | 1350 ft | 146 kts | 96° |
| 2026-04-27 19:45 | 26.67982 | -80.07463 | 1866 ft | 159 kts | 81° |
| 2026-04-27 19:45 | 26.68256 | -80.05713 | 3096 ft | 181 kts | 76° |
| 2026-04-27 19:46 | 26.68563 | -80.04829 | 3708 ft | 188 kts | 60° |
| 2026-04-27 19:46 | 26.69191 | -80.03500 | 4662 ft | 197 kts | 60° |
| 2026-04-27 19:46 | 26.69801 | -80.02100 | 5638 ft | 202 kts | 60° |
| 2026-04-27 19:46 | 26.70414 | -80.00670 | 6598 ft | 206 kts | 61° |
| 2026-04-27 19:47 | 26.71047 | -79.99214 | 7488 ft | 211 kts | 60° |
| 2026-04-27 19:47 | 26.71938 | -79.97907 | 8313 ft | 216 kts | 33° |
| 2026-04-27 19:47 | 26.73330 | -79.97294 | 9233 ft | 217 kts | 9° |
| 2026-04-27 19:47 | 26.74815 | -79.97042 | 10278 ft | 215 kts | 6° |
| 2026-04-27 19:48 | 26.76288 | -79.96791 | 11263 ft | 213 kts | 6° |
| 2026-04-27 19:48 | 26.77747 | -79.96759 | 12133 ft | 211 kts | 344° |
| 2026-04-27 19:48 | 26.79026 | -79.97527 | 12979 ft | 210 kts | 316° |
| 2026-04-27 19:48 | 26.79816 | -79.98884 | 13860 ft | 209 kts | 292° |
| 2026-04-27 19:49 | 26.80286 | -80.00406 | 14730 ft | 205 kts | 290° |
| 2026-04-27 19:49 | 26.80752 | -80.01901 | 15562 ft | 202 kts | 291° |
| 2026-04-27 19:49 | 26.81212 | -80.03386 | 16365 ft | 202 kts | 291° |
| 2026-04-27 19:49 | 26.81673 | -80.04875 | 17161 ft | 203 kts | 291° |
| 2026-04-27 19:50 | 26.82134 | -80.06366 | 17957 ft | 204 kts | 292° |
| 2026-04-27 19:50 | 26.82599 | -80.07869 | 18699 ft | 205 kts | 292° |
| 2026-04-27 19:50 | 26.83067 | -80.09383 | 19404 ft | 206 kts | 292° |
| 2026-04-27 19:50 | 26.83536 | -80.10898 | 20129 ft | 206 kts | 292° |
| 2026-04-27 19:51 | 26.84005 | -80.12418 | 20881 ft | 206 kts | 292° |
| 2026-04-27 19:51 | 26.84473 | -80.13933 | 21654 ft | 206 kts | 292° |
| 2026-04-27 19:51 | 26.84939 | -80.15443 | 22432 ft | 205 kts | 293° |
| 2026-04-27 19:51 | 26.85402 | -80.16942 | 23217 ft | 203 kts | 293° |
| 2026-04-27 19:52 | 26.85861 | -80.18432 | 23936 ft | 202 kts | 293° |
| 2026-04-27 19:52 | 26.86319 | -80.19916 | 24587 ft | 201 kts | 293° |
| 2026-04-27 19:52 | 26.86768 | -80.21372 | 25232 ft | 200 kts | 293° |
| 2026-04-27 19:52 | 26.87219 | -80.22837 | 25884 ft | 199 kts | 293° |
| 2026-04-27 19:53 | 26.88114 | -80.25745 | 27198 ft | 197 kts | 294° |
| 2026-04-27 19:53 | 26.88560 | -80.27192 | 27825 ft | 196 kts | 294° |
| 2026-04-27 19:53 | 26.89003 | -80.28631 | 28459 ft | 195 kts | 294° |
| 2026-04-27 19:54 | 26.89445 | -80.30070 | 29088 ft | 195 kts | 294° |
| 2026-04-27 19:54 | 26.89886 | -80.31505 | 29701 ft | 194 kts | 294° |
| 2026-04-27 19:54 | 26.90329 | -80.32943 | 30166 ft | 200 kts | 294° |
| 2026-04-27 19:54 | 26.90823 | -80.34522 | 30081 ft | 230 kts | 294° |
| 2026-04-27 19:55 | 26.91693 | -80.36109 | 30065 ft | 251 kts | 315° |
| 2026-04-27 19:55 | 26.93183 | -80.37282 | 30063 ft | 277 kts | 335° |
| 2026-04-27 19:55 | 26.95049 | -80.38101 | 30095 ft | 300 kts | 337° |
| 2026-04-27 19:55 | 26.97082 | -80.38954 | 30093 ft | 323 kts | 338° |
| 2026-04-27 19:56 | 26.99253 | -80.39883 | 30086 ft | 345 kts | 337° |
| 2026-04-27 19:56 | 27.01557 | -80.40882 | 30079 ft | 365 kts | 337° |
| 2026-04-27 19:56 | 27.03986 | -80.41931 | 30073 ft | 384 kts | 337° |
| 2026-04-27 19:56 | 27.06534 | -80.43025 | 30069 ft | 401 kts | 338° |
| 2026-04-27 19:57 | 27.09196 | -80.44170 | 30066 ft | 417 kts | 338° |
| 2026-04-27 19:57 | 27.11865 | -80.45564 | 30059 ft | 431 kts | 330° |
| 2026-04-27 19:57 | 27.14408 | -80.47434 | 30061 ft | 444 kts | 322° |
| 2026-04-27 19:57 | 27.16750 | -80.49764 | 30056 ft | 457 kts | 315° |
| 2026-04-27 19:58 | 27.18816 | -80.52537 | 30064 ft | 469 kts | 307° |
| 2026-04-27 19:58 | 27.20624 | -80.55644 | 30062 ft | 480 kts | 304° |
| 2026-04-27 19:58 | 27.24314 | -80.62059 | 30055 ft | 495 kts | 304° |
| 2026-04-27 19:59 | 27.28050 | -80.68578 | 30056 ft | 497 kts | 304° |
| 2026-04-27 19:59 | 27.31800 | -80.75128 | 30054 ft | 498 kts | 304° |
| 2026-04-27 20:00 | 27.35547 | -80.81680 | 30049 ft | 498 kts | 304° |
| 2026-04-27 20:00 | 27.39292 | -80.88242 | 30050 ft | 498 kts | 304° |
| 2026-04-27 20:01 | 27.43012 | -80.94767 | 30042 ft | 499 kts | 304° |
| 2026-04-27 20:01 | 27.46752 | -81.01340 | 30047 ft | 499 kts | 304° |
| 2026-04-27 20:02 | 27.50496 | -81.07927 | 30049 ft | 499 kts | 304° |
| 2026-04-27 20:02 | 27.54233 | -81.14512 | 30055 ft | 499 kts | 304° |
| 2026-04-27 20:03 | 27.57967 | -81.21103 | 30047 ft | 499 kts | 304° |
| 2026-04-27 20:03 | 27.61699 | -81.27700 | 30048 ft | 499 kts | 303° |
| 2026-04-27 20:04 | 27.65424 | -81.34293 | 30049 ft | 499 kts | 303° |
| 2026-04-27 20:04 | 27.69153 | -81.40905 | 30049 ft | 499 kts | 303° |
| 2026-04-27 20:05 | 27.72880 | -81.47523 | 30049 ft | 500 kts | 303° |
| 2026-04-27 20:05 | 27.76608 | -81.54153 | 30052 ft | 500 kts | 303° |
| 2026-04-27 20:06 | 27.80333 | -81.60789 | 30063 ft | 500 kts | 303° |
| 2026-04-27 20:06 | 27.84052 | -81.67423 | 30068 ft | 500 kts | 303° |
| 2026-04-27 20:07 | 27.87769 | -81.74062 | 30068 ft | 499 kts | 303° |
| 2026-04-27 20:07 | 27.91476 | -81.80697 | 30067 ft | 499 kts | 303° |
| 2026-04-27 20:08 | 27.95183 | -81.87341 | 30067 ft | 500 kts | 303° |
| 2026-04-27 20:08 | 27.98865 | -81.93950 | 30059 ft | 500 kts | 303° |
| 2026-04-27 20:09 | 28.02573 | -82.00615 | 30059 ft | 500 kts | 303° |
| 2026-04-27 20:09 | 28.06327 | -82.07245 | 30047 ft | 500 kts | 306° |
| 2026-04-27 20:10 | 28.11061 | -82.12985 | 30053 ft | 500 kts | 319° |
| 2026-04-27 20:10 | 28.16687 | -82.17605 | 30079 ft | 498 kts | 324° |
| 2026-04-27 20:11 | 28.22327 | -82.22135 | 30081 ft | 496 kts | 324° |
| 2026-04-27 20:11 | 28.27971 | -82.26630 | 30081 ft | 496 kts | 324° |
| 2026-04-27 20:12 | 28.32659 | -82.30389 | 30080 ft | 497 kts | 324° |
| 2026-04-27 20:12 | 28.39268 | -82.35682 | 30078 ft | 497 kts | 324° |
| 2026-04-27 20:13 | 28.44923 | -82.40222 | 30077 ft | 498 kts | 324° |
| 2026-04-27 20:13 | 28.50564 | -82.44753 | 30079 ft | 495 kts | 324° |
| 2026-04-27 20:14 | 28.56181 | -82.49275 | 30080 ft | 495 kts | 324° |
| 2026-04-27 20:14 | 28.61807 | -82.53807 | 30084 ft | 496 kts | 324° |
| 2026-04-27 20:15 | 28.67437 | -82.58349 | 30073 ft | 496 kts | 324° |
| 2026-04-27 20:15 | 28.73032 | -82.62869 | 30079 ft | 496 kts | 324° |
| 2026-04-27 20:16 | 28.78655 | -82.67419 | 30082 ft | 494 kts | 324° |
| 2026-04-27 20:16 | 28.84248 | -82.71949 | 30092 ft | 493 kts | 324° |
| 2026-04-27 20:17 | 28.89834 | -82.76479 | 30095 ft | 493 kts | 324° |
| 2026-04-27 20:17 | 28.94485 | -82.80257 | 30078 ft | 494 kts | 324° |
| 2026-04-27 20:18 | 29.01052 | -82.85598 | 30076 ft | 497 kts | 324° |
| 2026-04-27 20:18 | 29.06689 | -82.90188 | 30081 ft | 498 kts | 324° |
| 2026-04-27 20:19 | 29.12312 | -82.94775 | 30078 ft | 496 kts | 324° |
| 2026-04-27 20:19 | 29.17937 | -82.99370 | 30073 ft | 497 kts | 324° |
| 2026-04-27 20:20 | 29.23555 | -83.03964 | 30071 ft | 496 kts | 324° |
| 2026-04-27 20:20 | 29.29171 | -83.08563 | 30076 ft | 496 kts | 324° |
| 2026-04-27 20:21 | 29.34789 | -83.13172 | 30086 ft | 497 kts | 324° |
| 2026-04-27 20:21 | 29.40410 | -83.17787 | 30063 ft | 497 kts | 324° |
| 2026-04-27 20:22 | 29.46045 | -83.22422 | 30070 ft | 499 kts | 324° |
| 2026-04-27 20:22 | 29.51688 | -83.27069 | 30070 ft | 499 kts | 324° |
| 2026-04-27 20:23 | 29.57291 | -83.31690 | 30096 ft | 499 kts | 324° |
| 2026-04-27 20:23 | 29.62922 | -83.36341 | 29866 ft | 489 kts | 324° |
| 2026-04-27 20:24 | 29.65619 | -83.38568 | 29236 ft | 465 kts | 324° |
| 2026-04-27 20:24 | 29.68172 | -83.40678 | 28657 ft | 438 kts | 324° |
| 2026-04-27 20:24 | 29.70587 | -83.42679 | 28107 ft | 420 kts | 324° |
| 2026-04-27 20:24 | 29.72927 | -83.44619 | 27563 ft | 412 kts | 324° |
| 2026-04-27 20:25 | 29.75258 | -83.46552 | 27019 ft | 415 kts | 324° |
| 2026-04-27 20:25 | 29.77600 | -83.48495 | 26478 ft | 415 kts | 324° |
| 2026-04-27 20:25 | 29.79932 | -83.50429 | 25946 ft | 413 kts | 324° |
| 2026-04-27 20:25 | 29.82256 | -83.52358 | 25408 ft | 410 kts | 324° |
| 2026-04-27 20:26 | 29.84559 | -83.54272 | 24874 ft | 407 kts | 324° |
| 2026-04-27 20:26 | 29.86857 | -83.56181 | 24348 ft | 407 kts | 324° |
| 2026-04-27 20:26 | 29.89147 | -83.58086 | 23818 ft | 405 kts | 324° |
| 2026-04-27 20:26 | 29.91427 | -83.59980 | 23248 ft | 401 kts | 325° |
| 2026-04-27 20:27 | 29.93675 | -83.61851 | 22724 ft | 397 kts | 325° |
| 2026-04-27 20:27 | 29.95907 | -83.63709 | 22211 ft | 395 kts | 325° |
| 2026-04-27 20:27 | 29.98130 | -83.65561 | 21699 ft | 393 kts | 325° |
| 2026-04-27 20:27 | 30.00337 | -83.67401 | 21187 ft | 390 kts | 325° |
| 2026-04-27 20:28 | 30.02530 | -83.69229 | 20679 ft | 387 kts | 325° |
| 2026-04-27 20:28 | 30.04707 | -83.71045 | 20174 ft | 385 kts | 325° |
| 2026-04-27 20:28 | 30.06866 | -83.72848 | 19671 ft | 382 kts | 325° |
| 2026-04-27 20:28 | 30.08286 | -83.74035 | 19340 ft | 380 kts | 325° |
| 2026-04-27 20:29 | 30.11137 | -83.76417 | 18673 ft | 377 kts | 325° |
| 2026-04-27 20:29 | 30.13250 | -83.78188 | 18150 ft | 374 kts | 325° |
| 2026-04-27 20:29 | 30.15163 | -83.80206 | 17631 ft | 374 kts | 314° |
| 2026-04-27 20:29 | 30.16680 | -83.82643 | 17147 ft | 375 kts | 303° |
| 2026-04-27 20:30 | 30.17744 | -83.85395 | 16658 ft | 376 kts | 291° |
| 2026-04-27 20:30 | 30.18319 | -83.88344 | 16166 ft | 376 kts | 282° |
| 2026-04-27 20:30 | 30.18722 | -83.91333 | 15576 ft | 376 kts | 282° |
| 2026-04-27 20:30 | 30.19139 | -83.94290 | 15076 ft | 371 kts | 282° |
| 2026-04-27 20:31 | 30.19555 | -83.97229 | 14584 ft | 370 kts | 282° |
| 2026-04-27 20:31 | 30.19959 | -84.00154 | 14098 ft | 368 kts | 282° |
| 2026-04-27 20:31 | 30.20223 | -84.02082 | 13762 ft | 366 kts | 282° |
| 2026-04-27 20:31 | 30.20622 | -84.04979 | 13264 ft | 363 kts | 282° |
| 2026-04-27 20:32 | 30.21022 | -84.07854 | 12781 ft | 362 kts | 282° |
| 2026-04-27 20:32 | 30.21418 | -84.10720 | 12308 ft | 360 kts | 282° |
| 2026-04-27 20:32 | 30.21808 | -84.13568 | 11835 ft | 357 kts | 282° |
| 2026-04-27 20:32 | 30.22197 | -84.16400 | 11363 ft | 355 kts | 281° |
| 2026-04-27 20:33 | 30.22573 | -84.19147 | 10916 ft | 336 kts | 281° |
| 2026-04-27 20:33 | 30.22927 | -84.21738 | 10483 ft | 316 kts | 281° |
| 2026-04-27 20:33 | 30.23262 | -84.24177 | 10120 ft | 298 kts | 281° |
| 2026-04-27 20:33 | 30.23580 | -84.26493 | 9771 ft | 287 kts | 281° |
| 2026-04-27 20:34 | 30.23889 | -84.28756 | 9419 ft | 283 kts | 281° |
| 2026-04-27 20:34 | 30.24193 | -84.30997 | 9061 ft | 283 kts | 281° |
| 2026-04-27 20:34 | 30.24500 | -84.33253 | 8687 ft | 285 kts | 281° |
| 2026-04-27 20:34 | 30.24808 | -84.35522 | 8317 ft | 286 kts | 281° |
| 2026-04-27 20:35 | 30.25113 | -84.37768 | 7944 ft | 286 kts | 281° |
| 2026-04-27 20:35 | 30.25420 | -84.40038 | 7559 ft | 285 kts | 281° |
| 2026-04-27 20:35 | 30.25725 | -84.42290 | 7202 ft | 283 kts | 281° |
| 2026-04-27 20:35 | 30.26028 | -84.44533 | 6836 ft | 282 kts | 280° |
| 2026-04-27 20:36 | 30.26325 | -84.46738 | 6480 ft | 271 kts | 280° |
| 2026-04-27 20:36 | 30.26609 | -84.48847 | 6148 ft | 259 kts | 279° |
| 2026-04-27 20:36 | 30.26882 | -84.50862 | 5841 ft | 249 kts | 279° |
| 2026-04-27 20:36 | 30.27143 | -84.52804 | 5540 ft | 241 kts | 279° |
| 2026-04-27 20:37 | 30.27413 | -84.54686 | 5244 ft | 234 kts | 283° |
| 2026-04-27 20:37 | 30.28153 | -84.56289 | 4878 ft | 222 kts | 316° |
| 2026-04-27 20:37 | 30.29417 | -84.57171 | 4619 ft | 208 kts | 343° |
| 2026-04-27 20:37 | 30.30797 | -84.57319 | 4412 ft | 193 kts | 0° |
| 2026-04-27 20:38 | 30.32105 | -84.57333 | 4181 ft | 183 kts | 0° |
| 2026-04-27 20:38 | 30.33352 | -84.57354 | 3933 ft | 176 kts | 1° |
| 2026-04-27 20:38 | 30.34543 | -84.57372 | 3710 ft | 164 kts | 2° |
| 2026-04-27 20:38 | 30.35623 | -84.57388 | 3498 ft | 145 kts | 4° |
| 2026-04-27 20:39 | 30.36578 | -84.57397 | 3297 ft | 129 kts | 6° |
| 2026-04-27 20:39 | 30.37410 | -84.57176 | 3132 ft | 119 kts | 28° |
| 2026-04-27 20:39 | 30.38092 | -84.56683 | 2985 ft | 115 kts | 44° |
| 2026-04-27 20:39 | 30.38597 | -84.55981 | 2864 ft | 113 kts | 61° |
| 2026-04-27 20:40 | 30.38892 | -84.55143 | 2783 ft | 113 kts | 78° |
| 2026-04-27 20:40 | 30.38957 | -84.54246 | 2691 ft | 113 kts | 90° |
| 2026-04-27 20:40 | 30.38967 | -84.53352 | 2612 ft | 113 kts | 88° |
| 2026-04-27 20:40 | 30.38980 | -84.52433 | 2498 ft | 113 kts | 89° |
| 2026-04-27 20:41 | 30.38991 | -84.51515 | 2416 ft | 115 kts | 88° |
| 2026-04-27 20:41 | 30.39001 | -84.50578 | 2312 ft | 117 kts | 88° |
| 2026-04-27 20:41 | 30.39009 | -84.49645 | 2207 ft | 117 kts | 89° |
| 2026-04-27 20:41 | 30.39018 | -84.48711 | 2097 ft | 115 kts | 89° |
| 2026-04-27 20:42 | 30.39026 | -84.47797 | 1996 ft | 112 kts | 88° |
| 2026-04-27 20:42 | 30.39033 | -84.46898 | 1944 ft | 113 kts | 89° |
| 2026-04-27 20:42 | 30.39042 | -84.45949 | 1783 ft | 119 kts | 89° |
| 2026-04-27 20:42 | 30.39050 | -84.45009 | 1638 ft | 117 kts | 89° |
| 2026-04-27 20:43 | 30.39059 | -84.44037 | 1488 ft | 123 kts | 88° |
| 2026-04-27 20:43 | 30.39068 | -84.43081 | 1320 ft | 117 kts | 89° |
| 2026-04-27 20:43 | 30.39077 | -84.42137 | 1176 ft | 117 kts | 89° |
| 2026-04-27 20:43 | 30.39085 | -84.41197 | 1022 ft | 118 kts | 88° |
| 2026-04-27 20:44 | 30.39093 | -84.40250 | 859 ft | 114 kts | 90° |
| 2026-04-27 20:44 | 30.39102 | -84.39343 | 747 ft | 114 kts | 87° |
| 2026-04-27 20:44 | 30.39154 | -84.38421 | 553 ft | 113 kts | 88° |
| 2026-04-27 20:44 | 30.39124 | -84.37521 | 373 ft | 115 kts | 90° |
| 2026-04-27 20:45 | 30.39118 | -84.36620 | 254 ft | 110 kts | 85° |
| 2026-04-27 20:45 | 30.39135 | -84.35749 | 121 ft | 106 kts | 86° |
| 2026-04-27 20:45 | 30.39152 | -84.34941 | 69 ft | 91 kts | 87° |
| 2026-04-27 20:45 | 30.39147 | -84.34367 | 68 ft | 38 kts | 90° |
| 2026-04-27 20:46 | 30.39144 | -84.34057 | 65 ft | 37 kts | 92° |
| 2026-04-27 20:46 | 30.39154 | -84.33830 | 64 ft | 19 kts | 92° |
| 2026-04-27 20:46 | 30.39209 | -84.33756 | 62 ft | 13 kts | 14° |
| 2026-04-27 20:46 | 30.39240 | -84.33752 | 61 ft | 0 kts | 0° |
| 2026-04-27 20:47 | 30.39266 | -84.33751 | 61 ft | 5 kts | 6° |
| 2026-04-27 20:47 | 30.39303 | -84.33756 | 56 ft | 9 kts | 315° |
| 2026-04-27 20:47 | 30.39311 | -84.33895 | 66 ft | 28 kts | 269° |
| 2026-04-27 20:47 | 30.39308 | -84.34176 | 68 ft | 40 kts | 269° |
| 2026-04-27 20:48 | 30.39307 | -84.34480 | 71 ft | 38 kts | 270° |
| 2026-04-27 20:48 | 30.39303 | -84.34806 | 66 ft | 34 kts | 270° |
| 2026-04-27 20:48 | 30.39303 | -84.35062 | 65 ft | 35 kts | 269° |
| 2026-04-27 20:48 | 30.39307 | -84.35316 | 66 ft | 22 kts | 294° |
| 2026-04-27 20:49 | 30.39454 | -84.35340 | 66 ft | 25 kts | 359° |
| 2026-04-27 20:49 | 30.39595 | -84.35372 | 63 ft | 20 kts | 318° |
| 2026-04-27 20:49 | 30.39596 | -84.35455 | 61 ft | 8 kts | 219° |
| 2026-04-27 20:49 | 30.39587 | -84.35456 | 59 ft | 0 kts | 177° |